createdAt,value
2022-08-21T00:00:27.095Z,16.10
2022-08-21T00:15:23.784Z,16.05
2022-08-21T00:30:23.717Z,15.93
2022-08-21T00:45:23.720Z,15.65
2022-08-21T01:00:23.662Z,15.40
2022-08-21T01:15:23.764Z,15.00
2022-08-21T01:30:24.051Z,15.25
2022-08-21T01:45:23.765Z,15.07
2022-08-21T02:00:23.401Z,15.02
2022-08-21T02:15:23.269Z,14.65
2022-08-21T02:30:23.951Z,14.73
2022-08-21T02:45:23.854Z,14.73
2022-08-21T03:00:26.434Z,14.25
2022-08-21T03:15:23.969Z,14.18
2022-08-21T03:30:23.693Z,14.27
2022-08-21T03:45:23.937Z,13.75
2022-08-21T04:00:24.903Z,13.68
2022-08-21T04:15:24.073Z,13.62
2022-08-21T04:30:28.716Z,13.62
2022-08-21T04:45:24.073Z,12.90
2022-08-21T05:00:29.004Z,13.20
2022-08-21T05:15:24.138Z,13.42
2022-08-21T05:30:24.296Z,13.30
2022-08-21T05:45:39.306Z,13.43
2022-08-21T06:00:27.118Z,13.45
2022-08-21T06:15:24.358Z,13.60
2022-08-21T06:30:24.290Z,15.37
2022-08-21T06:45:24.304Z,16.85
2022-08-21T07:00:29.648Z,18.30
2022-08-21T07:15:24.282Z,19.17
2022-08-21T07:30:24.309Z,19.20
2022-08-21T07:45:24.445Z,20.27
2022-08-21T08:00:33.578Z,20.85
2022-08-21T08:15:23.356Z,23.30
2022-08-21T08:30:23.560Z,24.00
2022-08-21T08:45:23.610Z,22.48
2022-08-21T09:00:26.874Z,22.40
2022-08-21T09:15:23.722Z,22.25
2022-08-21T09:30:23.721Z,21.70
2022-08-21T09:45:23.226Z,22.08
2022-08-21T10:00:28.410Z,22.30
2022-08-21T10:15:23.496Z,22.60
2022-08-21T10:30:23.381Z,22.73
2022-08-21T10:45:23.723Z,22.98
2022-08-21T11:00:29.186Z,23.45
2022-08-21T11:15:29.100Z,23.47
2022-08-21T11:30:23.741Z,23.77
2022-08-21T11:45:23.757Z,24.33
2022-08-21T12:00:32.040Z,24.60
2022-08-21T12:15:23.941Z,24.50
2022-08-21T12:30:25.816Z,24.70
2022-08-21T12:45:23.895Z,25.02
2022-08-21T13:00:26.650Z,25.20
2022-08-21T13:15:23.875Z,25.62
2022-08-21T13:30:24.076Z,25.73
2022-08-21T13:45:24.192Z,25.80
2022-08-21T14:00:23.885Z,26.17
2022-08-21T14:15:23.960Z,26.47
2022-08-21T14:30:23.945Z,27.00
2022-08-21T14:45:24.783Z,26.95
2022-08-21T15:00:35.624Z,26.95
2022-08-21T15:15:24.197Z,27.40
2022-08-21T15:30:24.349Z,27.80
2022-08-21T15:45:23.978Z,27.85
2022-08-21T16:00:32.995Z,28.23
2022-08-21T16:15:23.088Z,28.25
2022-08-21T16:30:23.145Z,28.23
2022-08-21T16:45:23.434Z,28.27
2022-08-21T17:00:23.115Z,27.65
2022-08-21T17:15:23.180Z,27.02
2022-08-21T17:30:23.409Z,26.38
2022-08-21T17:45:23.117Z,25.33
2022-08-21T18:00:25.000Z,24.60
2022-08-21T18:15:23.500Z,24.33
2022-08-21T18:30:26.721Z,23.30
2022-08-21T18:45:24.673Z,22.72
2022-08-21T19:00:28.112Z,20.90
2022-08-21T19:15:23.329Z,22.45
2022-08-21T19:30:23.511Z,22.05
2022-08-21T20:15:23.643Z,20.25
2022-08-21T20:30:23.617Z,20.08
2022-08-21T20:45:23.550Z,20.10
2022-08-21T21:00:30.075Z,19.77
2022-08-21T21:15:27.797Z,19.42
2022-08-21T21:30:23.907Z,19.33
2022-08-21T21:45:23.764Z,19.15
2022-08-21T22:00:35.957Z,18.00
2022-08-21T22:15:26.327Z,18.38
2022-08-21T22:30:23.805Z,18.08
2022-08-21T22:45:23.824Z,17.95
2022-08-21T23:00:24.799Z,17.52
2022-08-21T23:15:23.865Z,17.73
2022-08-21T23:30:23.873Z,16.92
2022-08-21T23:45:24.368Z,17.10
